sensor_id;sensor_type;location;lat;lon;timestamp;P1;durP1;ratioP1;P2;durP2;ratioP2
78772;SDS011;68111;44.728;11.290;2023-11-21T09:02:26;57.88;;;39.10;;
78772;SDS011;68111;44.728;11.290;2023-11-21T09:04:53;58.63;;;37.45;;
78772;SDS011;68111;44.728;11.290;2023-11-21T09:07:20;55.92;;;37.85;;
78772;SDS011;68111;44.728;11.290;2023-11-21T09:09:47;51.47;;;36.35;;
78772;SDS011;68111;44.728;11.290;2023-11-21T09:12:15;53.42;;;37.33;;
78772;SDS011;68111;44.728;11.290;2023-11-21T09:14:42;55.13;;;36.92;;
78772;SDS011;68111;44.728;11.290;2023-11-21T09:17:10;59.58;;;38.15;;
78772;SDS011;68111;44.728;11.290;2023-11-21T09:19:38;58.80;;;38.58;;
78772;SDS011;68111;44.728;11.290;2023-11-21T09:22:05;54.50;;;37.78;;
78772;SDS011;68111;44.728;11.290;2023-11-21T09:24:32;57.67;;;37.83;;
78772;SDS011;68111;44.728;11.290;2023-11-21T09:27:45;52.40;;;37.20;;
78772;SDS011;68111;44.728;11.290;2023-11-21T09:30:05;60.03;;;39.15;;
78772;SDS011;68111;44.728;11.290;2023-11-21T09:32:37;55.03;;;38.78;;
78772;SDS011;68111;44.728;11.290;2023-11-21T09:35:04;55.65;;;38.85;;
78772;SDS011;68111;44.728;11.290;2023-11-21T09:37:32;57.65;;;39.65;;
78772;SDS011;68111;44.728;11.290;2023-11-21T09:39:58;61.15;;;38.63;;
78772;SDS011;68111;44.728;11.290;2023-11-21T09:42:28;54.95;;;38.97;;
78772;SDS011;68111;44.728;11.290;2023-11-21T09:45:10;62.05;;;41.22;;
78772;SDS011;68111;44.728;11.290;2023-11-21T09:47:58;55.45;;;38.90;;
78772;SDS011;68111;44.728;11.290;2023-11-21T09:50:25;56.63;;;39.47;;
78772;SDS011;68111;44.728;11.290;2023-11-21T09:55:45;59.75;;;40.25;;
78772;SDS011;68111;44.728;11.290;2023-11-21T09:58:14;61.63;;;41.90;;
78772;SDS011;68111;44.728;11.290;2023-11-21T10:00:45;58.20;;;40.90;;
78772;SDS011;68111;44.728;11.290;2023-11-21T10:03:14;62.72;;;42.80;;
78772;SDS011;68111;44.728;11.290;2023-11-21T10:05:42;62.95;;;43.65;;
78772;SDS011;68111;44.728;11.290;2023-11-21T10:08:12;66.40;;;44.05;;
78772;SDS011;68111;44.728;11.290;2023-11-21T10:10:42;65.97;;;42.80;;
78772;SDS011;68111;44.728;11.290;2023-11-21T10:13:15;64.28;;;41.33;;
78772;SDS011;68111;44.728;11.290;2023-11-21T10:15:44;63.08;;;41.97;;
78772;SDS011;68111;44.728;11.290;2023-11-21T10:18:16;64.50;;;42.83;;
78772;SDS011;68111;44.728;11.290;2023-11-21T10:20:44;63.88;;;44.55;;
78772;SDS011;68111;44.728;11.290;2023-11-21T10:23:38;64.38;;;41.38;;
78772;SDS011;68111;44.728;11.290;2023-11-21T10:26:06;63.85;;;42.78;;
78772;SDS011;68111;44.728;11.290;2023-11-21T10:28:59;71.00;;;44.97;;
78772;SDS011;68111;44.728;11.290;2023-11-21T10:31:26;68.55;;;45.00;;
78772;SDS011;68111;44.728;11.290;2023-11-21T10:33:54;67.75;;;45.60;;
78772;SDS011;68111;44.728;11.290;2023-11-21T10:36:27;67.53;;;43.15;;
78772;SDS011;68111;44.728;11.290;2023-11-21T10:38:54;65.43;;;43.03;;
78772;SDS011;68111;44.728;11.290;2023-11-21T10:41:23;65.07;;;43.00;;
78772;SDS011;68111;44.728;11.290;2023-11-21T10:43:54;60.50;;;41.45;;
78772;SDS011;68111;44.728;11.290;2023-11-21T10:46:22;61.30;;;42.58;;
78772;SDS011;68111;44.728;11.290;2023-11-21T10:49:10;64.50;;;42.42;;
78772;SDS011;68111;44.728;11.290;2023-11-21T10:51:38;66.55;;;43.67;;
78772;SDS011;68111;44.728;11.290;2023-11-21T10:54:10;66.32;;;43.80;;
78772;SDS011;68111;44.728;11.290;2023-11-21T10:56:39;65.47;;;43.17;;
78772;SDS011;68111;44.728;11.290;2023-11-21T10:59:09;63.28;;;43.17;;
78772;SDS011;68111;44.728;11.290;2023-11-21T11:01:45;67.70;;;44.05;;
78772;SDS011;68111;44.728;11.290;2023-11-21T11:04:12;68.00;;;43.78;;
78772;SDS011;68111;44.728;11.290;2023-11-21T11:06:43;67.78;;;43.88;;
78772;SDS011;68111;44.728;11.290;2023-11-21T11:09:12;66.05;;;46.60;;
78772;SDS011;68111;44.728;11.290;2023-11-21T11:11:40;66.47;;;44.70;;
78772;SDS011;68111;44.728;11.290;2023-11-21T11:14:16;70.50;;;46.05;;
78772;SDS011;68111;44.728;11.290;2023-11-21T11:16:46;68.65;;;46.60;;
78772;SDS011;68111;44.728;11.290;2023-11-21T11:19:13;63.83;;;44.75;;
78772;SDS011;68111;44.728;11.290;2023-11-21T11:38:34;65.13;;;45.20;;
78772;SDS011;68111;44.728;11.290;2023-11-21T11:41:03;71.78;;;44.47;;
78772;SDS011;68111;44.728;11.290;2023-11-21T11:43:30;63.53;;;43.63;;
78772;SDS011;68111;44.728;11.290;2023-11-21T11:46:18;63.08;;;42.22;;
78772;SDS011;68111;44.728;11.290;2023-11-21T11:48:48;65.00;;;43.20;;
78772;SDS011;68111;44.728;11.290;2023-11-21T11:51:29;66.85;;;44.33;;
78772;SDS011;68111;44.728;11.290;2023-11-21T11:53:57;63.33;;;41.97;;
78772;SDS011;68111;44.728;11.290;2023-11-21T11:56:28;69.68;;;44.20;;
78772;SDS011;68111;44.728;11.290;2023-11-21T11:59:01;61.63;;;42.75;;
78772;SDS011;68111;44.728;11.290;2023-11-21T12:01:31;63.03;;;44.35;;
78772;SDS011;68111;44.728;11.290;2023-11-21T12:06:47;64.25;;;43.00;;
78772;SDS011;68111;44.728;11.290;2023-11-21T12:09:20;66.03;;;42.50;;
78772;SDS011;68111;44.728;11.290;2023-11-21T12:11:49;61.55;;;44.15;;
78772;SDS011;68111;44.728;11.290;2023-11-21T12:14:16;64.70;;;44.03;;
78772;SDS011;68111;44.728;11.290;2023-11-21T12:16:44;69.00;;;44.85;;
78772;SDS011;68111;44.728;11.290;2023-11-21T12:19:12;65.95;;;43.40;;
78772;SDS011;68111;44.728;11.290;2023-11-21T12:21:39;66.90;;;45.65;;
78772;SDS011;68111;44.728;11.290;2023-11-21T12:24:11;64.13;;;43.90;;
78772;SDS011;68111;44.728;11.290;2023-11-21T12:26:41;70.55;;;48.22;;
78772;SDS011;68111;44.728;11.290;2023-11-21T12:29:08;66.60;;;45.33;;
78772;SDS011;68111;44.728;11.290;2023-11-21T12:31:37;66.07;;;43.55;;
78772;SDS011;68111;44.728;11.290;2023-11-21T12:34:04;64.63;;;43.28;;
78772;SDS011;68111;44.728;11.290;2023-11-21T12:36:33;60.97;;;41.22;;
78772;SDS011;68111;44.728;11.290;2023-11-21T12:39:01;61.15;;;41.78;;
78772;SDS011;68111;44.728;11.290;2023-11-21T12:41:29;64.80;;;42.58;;
78772;SDS011;68111;44.728;11.290;2023-11-21T12:43:57;61.17;;;41.25;;
78772;SDS011;68111;44.728;11.290;2023-11-21T12:46:24;62.58;;;43.13;;
78772;SDS011;68111;44.728;11.290;2023-11-21T12:48:55;57.95;;;39.40;;
78772;SDS011;68111;44.728;11.290;2023-11-21T12:51:24;64.03;;;42.55;;
78772;SDS011;68111;44.728;11.290;2023-11-21T12:53:51;61.53;;;41.47;;
78772;SDS011;68111;44.728;11.290;2023-11-21T12:56:20;60.75;;;41.17;;
78772;SDS011;68111;44.728;11.290;2023-11-21T12:58:53;65.32;;;43.03;;
78772;SDS011;68111;44.728;11.290;2023-11-21T13:01:25;56.30;;;40.97;;
78772;SDS011;68111;44.728;11.290;2023-11-21T13:03:56;61.33;;;40.47;;
78772;SDS011;68111;44.728;11.290;2023-11-21T13:06:28;62.35;;;41.78;;
78772;SDS011;68111;44.728;11.290;2023-11-21T13:09:05;59.50;;;39.13;;
78772;SDS011;68111;44.728;11.290;2023-11-21T13:11:34;58.10;;;41.35;;
78772;SDS011;68111;44.728;11.290;2023-11-21T13:14:01;61.90;;;42.97;;
78772;SDS011;68111;44.728;11.290;2023-11-21T13:16:30;58.70;;;41.05;;
78772;SDS011;68111;44.728;11.290;2023-11-21T13:18:58;62.28;;;44.10;;
78772;SDS011;68111;44.728;11.290;2023-11-21T13:21:24;64.00;;;41.72;;
78772;SDS011;68111;44.728;11.290;2023-11-21T13:23:51;62.88;;;41.85;;
78772;SDS011;68111;44.728;11.290;2023-11-21T13:26:19;62.08;;;42.35;;
78772;SDS011;68111;44.728;11.290;2023-11-21T13:28:48;60.17;;;41.95;;
78772;SDS011;68111;44.728;11.290;2023-11-21T13:31:15;64.45;;;43.00;;
78772;SDS011;68111;44.728;11.290;2023-11-21T13:33:52;62.17;;;43.50;;
78772;SDS011;68111;44.728;11.290;2023-11-21T13:36:23;61.58;;;41.95;;
78772;SDS011;68111;44.728;11.290;2023-11-21T13:38:52;66.50;;;43.08;;
78772;SDS011;68111;44.728;11.290;2023-11-21T13:41:20;60.45;;;42.33;;
78772;SDS011;68111;44.728;11.290;2023-11-21T13:43:54;64.82;;;45.38;;
78772;SDS011;68111;44.728;11.290;2023-11-21T13:46:30;61.42;;;42.55;;
78772;SDS011;68111;44.728;11.290;2023-11-21T13:49:04;64.53;;;43.53;;
78772;SDS011;68111;44.728;11.290;2023-11-21T13:51:36;63.15;;;44.20;;
78772;SDS011;68111;44.728;11.290;2023-11-21T13:54:14;62.33;;;43.33;;
78772;SDS011;68111;44.728;11.290;2023-11-21T13:56:41;63.63;;;44.45;;
78772;SDS011;68111;44.728;11.290;2023-11-21T13:59:11;61.00;;;42.25;;
78772;SDS011;68111;44.728;11.290;2023-11-21T14:01:51;64.55;;;43.60;;
78772;SDS011;68111;44.728;11.290;2023-11-21T14:04:27;62.13;;;43.38;;
78772;SDS011;68111;44.728;11.290;2023-11-21T14:06:57;67.13;;;44.97;;
78772;SDS011;68111;44.728;11.290;2023-11-21T14:09:27;65.65;;;44.92;;
78772;SDS011;68111;44.728;11.290;2023-11-21T14:12:02;66.10;;;44.42;;
78772;SDS011;68111;44.728;11.290;2023-11-21T14:14:33;64.50;;;43.72;;
78772;SDS011;68111;44.728;11.290;2023-11-21T14:17:00;67.90;;;45.70;;
78772;SDS011;68111;44.728;11.290;2023-11-21T14:19:33;61.92;;;44.35;;
78772;SDS011;68111;44.728;11.290;2023-11-21T14:22:00;64.75;;;43.90;;
78772;SDS011;68111;44.728;11.290;2023-11-21T14:24:27;65.03;;;44.28;;
78772;SDS011;68111;44.728;11.290;2023-11-21T14:26:55;66.00;;;45.13;;
78772;SDS011;68111;44.728;11.290;2023-11-21T14:29:41;66.90;;;44.47;;
78772;SDS011;68111;44.728;11.290;2023-11-21T14:32:11;62.80;;;42.63;;
78772;SDS011;68111;44.728;11.290;2023-11-21T14:34:39;60.88;;;42.35;;
78772;SDS011;68111;44.728;11.290;2023-11-21T14:37:07;61.72;;;42.15;;
78772;SDS011;68111;44.728;11.290;2023-11-21T14:39:34;62.33;;;42.95;;
78772;SDS011;68111;44.728;11.290;2023-11-21T14:42:06;63.45;;;43.00;;
78772;SDS011;68111;44.728;11.290;2023-11-21T14:44:37;68.07;;;45.35;;
78772;SDS011;68111;44.728;11.290;2023-11-21T14:47:08;63.70;;;42.97;;
78772;SDS011;68111;44.728;11.290;2023-11-21T14:49:42;66.35;;;44.47;;
78772;SDS011;68111;44.728;11.290;2023-11-21T14:52:50;67.60;;;44.30;;
78772;SDS011;68111;44.728;11.290;2023-11-21T14:55:26;61.88;;;43.15;;
78772;SDS011;68111;44.728;11.290;2023-11-21T14:57:58;66.85;;;44.72;;
78772;SDS011;68111;44.728;11.290;2023-11-21T15:00:29;67.97;;;45.15;;
78772;SDS011;68111;44.728;11.290;2023-11-21T15:03:07;66.05;;;43.70;;
78772;SDS011;68111;44.728;11.290;2023-11-21T15:05:36;69.93;;;47.65;;
78772;SDS011;68111;44.728;11.290;2023-11-21T15:08:06;67.22;;;45.92;;
78772;SDS011;68111;44.728;11.290;2023-11-21T15:10:53;83.25;;;51.20;;
78772;SDS011;68111;44.728;11.290;2023-11-21T15:13:21;64.88;;;44.35;;
78772;SDS011;68111;44.728;11.290;2023-11-21T15:15:50;63.47;;;43.85;;
78772;SDS011;68111;44.728;11.290;2023-11-21T15:18:18;67.72;;;45.90;;
78772;SDS011;68111;44.728;11.290;2023-11-21T15:20:46;67.15;;;44.65;;
78772;SDS011;68111;44.728;11.290;2023-11-21T15:23:13;66.18;;;44.03;;
78772;SDS011;68111;44.728;11.290;2023-11-21T15:25:41;69.82;;;46.22;;
78772;SDS011;68111;44.728;11.290;2023-11-21T15:28:07;64.53;;;43.95;;
78772;SDS011;68111;44.728;11.290;2023-11-21T15:30:34;69.88;;;45.15;;
78772;SDS011;68111;44.728;11.290;2023-11-21T15:33:01;63.40;;;43.67;;
78772;SDS011;68111;44.728;11.290;2023-11-21T15:35:30;67.88;;;45.47;;
78772;SDS011;68111;44.728;11.290;2023-11-21T15:37:59;65.22;;;44.70;;
78772;SDS011;68111;44.728;11.290;2023-11-21T15:40:26;65.78;;;44.72;;
78772;SDS011;68111;44.728;11.290;2023-11-21T15:42:54;62.25;;;44.50;;
78772;SDS011;68111;44.728;11.290;2023-11-21T15:45:21;63.75;;;43.50;;
78772;SDS011;68111;44.728;11.290;2023-11-21T15:47:51;73.78;;;46.13;;
78772;SDS011;68111;44.728;11.290;2023-11-21T15:50:19;67.45;;;46.05;;
78772;SDS011;68111;44.728;11.290;2023-11-21T15:52:46;68.47;;;44.60;;
78772;SDS011;68111;44.728;11.290;2023-11-21T15:55:26;68.88;;;45.75;;
78772;SDS011;68111;44.728;11.290;2023-11-21T15:57:53;68.50;;;45.83;;
78772;SDS011;68111;44.728;11.290;2023-11-21T16:00:20;69.15;;;45.58;;
78772;SDS011;68111;44.728;11.290;2023-11-21T16:02:49;65.90;;;44.30;;
78772;SDS011;68111;44.728;11.290;2023-11-21T16:05:16;67.45;;;44.47;;
78772;SDS011;68111;44.728;11.290;2023-11-21T16:07:44;66.20;;;43.80;;
78772;SDS011;68111;44.728;11.290;2023-11-21T16:10:11;67.97;;;43.55;;
78772;SDS011;68111;44.728;11.290;2023-11-21T16:12:41;67.75;;;44.08;;
78772;SDS011;68111;44.728;11.290;2023-11-21T16:15:09;72.85;;;45.70;;
78772;SDS011;68111;44.728;11.290;2023-11-21T16:17:38;71.05;;;46.33;;
78772;SDS011;68111;44.728;11.290;2023-11-21T16:20:05;70.18;;;44.90;;
78772;SDS011;68111;44.728;11.290;2023-11-21T16:22:36;64.18;;;41.95;;
78772;SDS011;68111;44.728;11.290;2023-11-21T16:25:08;65.47;;;43.15;;
78772;SDS011;68111;44.728;11.290;2023-11-21T16:27:39;64.88;;;42.63;;
78772;SDS011;68111;44.728;11.290;2023-11-21T16:30:07;60.70;;;40.72;;
78772;SDS011;68111;44.728;11.290;2023-11-21T16:32:37;61.65;;;41.30;;
78772;SDS011;68111;44.728;11.290;2023-11-21T16:35:04;59.97;;;40.65;;
78772;SDS011;68111;44.728;11.290;2023-11-21T16:37:31;57.53;;;39.58;;
78772;SDS011;68111;44.728;11.290;2023-11-21T16:39:58;85.70;;;49.67;;
78772;SDS011;68111;44.728;11.290;2023-11-21T16:42:25;64.30;;;42.50;;
78772;SDS011;68111;44.728;11.290;2023-11-21T16:44:57;65.07;;;41.42;;
78772;SDS011;68111;44.728;11.290;2023-11-21T16:47:24;55.42;;;36.88;;
78772;SDS011;68111;44.728;11.290;2023-11-21T16:49:54;52.10;;;34.75;;
78772;SDS011;68111;44.728;11.290;2023-11-21T16:52:23;51.33;;;32.58;;
78772;SDS011;68111;44.728;11.290;2023-11-21T16:54:49;42.78;;;27.40;;
78772;SDS011;68111;44.728;11.290;2023-11-21T16:57:17;28.13;;;16.67;;
78772;SDS011;68111;44.728;11.290;2023-11-21T16:59:44;16.13;;;9.05;;
78772;SDS011;68111;44.728;11.290;2023-11-21T17:02:11;13.52;;;6.80;;
78772;SDS011;68111;44.728;11.290;2023-11-21T17:04:41;8.60;;;3.80;;
78772;SDS011;68111;44.728;11.290;2023-11-21T17:07:09;8.82;;;2.13;;
78772;SDS011;68111;44.728;11.290;2023-11-21T17:09:38;7.13;;;1.60;;
78772;SDS011;68111;44.728;11.290;2023-11-21T17:12:05;8.05;;;1.50;;
78772;SDS011;68111;44.728;11.290;2023-11-21T17:14:32;6.47;;;1.48;;
78772;SDS011;68111;44.728;11.290;2023-11-21T17:17:00;6.38;;;1.30;;
78772;SDS011;68111;44.728;11.290;2023-11-21T17:19:27;7.40;;;1.42;;
78772;SDS011;68111;44.728;11.290;2023-11-21T17:24:24;5.72;;;1.50;;
78772;SDS011;68111;44.728;11.290;2023-11-21T17:26:51;4.65;;;1.17;;
78772;SDS011;68111;44.728;11.290;2023-11-21T17:29:19;5.57;;;1.40;;
78772;SDS011;68111;44.728;11.290;2023-11-21T17:31:46;4.20;;;1.30;;
78772;SDS011;68111;44.728;11.290;2023-11-21T17:34:13;5.10;;;1.52;;
78772;SDS011;68111;44.728;11.290;2023-11-21T17:36:40;7.57;;;1.50;;
78772;SDS011;68111;44.728;11.290;2023-11-21T17:39:07;2.97;;;1.10;;
78772;SDS011;68111;44.728;11.290;2023-11-21T17:41:37;6.25;;;1.00;;
78772;SDS011;68111;44.728;11.290;2023-11-21T17:44:04;8.05;;;1.30;;
78772;SDS011;68111;44.728;11.290;2023-11-21T17:46:32;5.55;;;1.40;;
78772;SDS011;68111;44.728;11.290;2023-11-21T17:48:59;6.65;;;1.20;;
78772;SDS011;68111;44.728;11.290;2023-11-21T17:51:26;5.25;;;1.13;;
78772;SDS011;68111;44.728;11.290;2023-11-21T17:53:52;4.32;;;1.15;;
78772;SDS011;68111;44.728;11.290;2023-11-21T17:56:24;8.20;;;1.35;;
78772;SDS011;68111;44.728;11.290;2023-11-21T17:58:51;4.35;;;1.55;;
78772;SDS011;68111;44.728;11.290;2023-11-21T18:01:20;6.05;;;1.33;;
78772;SDS011;68111;44.728;11.290;2023-11-21T18:03:47;8.38;;;1.30;;
78772;SDS011;68111;44.728;11.290;2023-11-21T18:06:15;5.10;;;1.20;;
78772;SDS011;68111;44.728;11.290;2023-11-21T18:08:42;6.70;;;1.50;;
78772;SDS011;68111;44.728;11.290;2023-11-21T18:11:09;6.18;;;1.23;;
78772;SDS011;68111;44.728;11.290;2023-11-21T18:13:35;4.10;;;1.00;;
78772;SDS011;68111;44.728;11.290;2023-11-21T18:16:02;2.92;;;0.80;;
78772;SDS011;68111;44.728;11.290;2023-11-21T18:18:30;3.88;;;1.30;;
78772;SDS011;68111;44.728;11.290;2023-11-21T18:20:56;3.25;;;0.93;;
78772;SDS011;68111;44.728;11.290;2023-11-21T18:23:23;4.60;;;1.70;;
78772;SDS011;68111;44.728;11.290;2023-11-21T18:25:50;2.17;;;0.95;;
78772;SDS011;68111;44.728;11.290;2023-11-21T18:28:17;4.35;;;0.98;;
78772;SDS011;68111;44.728;11.290;2023-11-21T18:30:44;3.55;;;1.48;;
78772;SDS011;68111;44.728;11.290;2023-11-21T18:33:10;3.60;;;1.35;;
78772;SDS011;68111;44.728;11.290;2023-11-21T18:35:38;6.78;;;1.73;;
78772;SDS011;68111;44.728;11.290;2023-11-21T18:38:05;2.50;;;1.27;;
78772;SDS011;68111;44.728;11.290;2023-11-21T18:40:32;4.13;;;1.42;;
78772;SDS011;68111;44.728;11.290;2023-11-21T18:42:59;8.60;;;1.42;;
78772;SDS011;68111;44.728;11.290;2023-11-21T18:45:27;4.95;;;1.40;;
78772;SDS011;68111;44.728;11.290;2023-11-21T18:47:54;5.53;;;1.30;;
78772;SDS011;68111;44.728;11.290;2023-11-21T18:50:21;5.55;;;1.30;;
78772;SDS011;68111;44.728;11.290;2023-11-21T18:52:49;4.20;;;1.30;;
78772;SDS011;68111;44.728;11.290;2023-11-21T18:55:16;3.70;;;1.17;;
78772;SDS011;68111;44.728;11.290;2023-11-21T18:57:43;4.75;;;1.30;;
78772;SDS011;68111;44.728;11.290;2023-11-21T19:00:10;4.68;;;1.70;;
78772;SDS011;68111;44.728;11.290;2023-11-21T19:02:39;4.53;;;1.52;;
78772;SDS011;68111;44.728;11.290;2023-11-21T19:05:07;5.00;;;1.65;;
78772;SDS011;68111;44.728;11.290;2023-11-21T19:07:34;5.28;;;1.85;;
78772;SDS011;68111;44.728;11.290;2023-11-21T19:10:03;5.45;;;1.80;;
78772;SDS011;68111;44.728;11.290;2023-11-21T19:12:31;3.50;;;1.60;;
78772;SDS011;68111;44.728;11.290;2023-11-21T19:15:02;5.82;;;1.63;;
78772;SDS011;68111;44.728;11.290;2023-11-21T19:17:30;7.18;;;1.65;;
78772;SDS011;68111;44.728;11.290;2023-11-21T19:19:59;4.03;;;1.50;;
78772;SDS011;68111;44.728;11.290;2023-11-21T19:22:26;5.93;;;1.63;;
78772;SDS011;68111;44.728;11.290;2023-11-21T19:24:53;17.23;;;9.50;;
78772;SDS011;68111;44.728;11.290;2023-11-21T19:27:20;10.05;;;4.18;;
78772;SDS011;68111;44.728;11.290;2023-11-21T19:29:47;10.13;;;4.00;;
78772;SDS011;68111;44.728;11.290;2023-11-21T19:32:14;8.77;;;3.00;;
78772;SDS011;68111;44.728;11.290;2023-11-21T19:34:41;8.10;;;2.97;;
78772;SDS011;68111;44.728;11.290;2023-11-21T19:37:08;8.15;;;2.80;;
78772;SDS011;68111;44.728;11.290;2023-11-21T19:39:35;7.05;;;2.67;;
78772;SDS011;68111;44.728;11.290;2023-11-21T19:42:02;7.95;;;3.22;;
78772;SDS011;68111;44.728;11.290;2023-11-21T19:44:29;10.73;;;2.80;;
78772;SDS011;68111;44.728;11.290;2023-11-21T19:46:57;7.28;;;2.25;;
78772;SDS011;68111;44.728;11.290;2023-11-21T19:49:25;6.82;;;2.00;;
78772;SDS011;68111;44.728;11.290;2023-11-21T19:51:52;5.05;;;2.05;;
78772;SDS011;68111;44.728;11.290;2023-11-21T19:54:19;8.35;;;2.40;;
78772;SDS011;68111;44.728;11.290;2023-11-21T19:56:46;12.13;;;2.58;;
78772;SDS011;68111;44.728;11.290;2023-11-21T19:59:12;7.18;;;2.20;;
78772;SDS011;68111;44.728;11.290;2023-11-21T20:01:41;10.52;;;2.30;;
78772;SDS011;68111;44.728;11.290;2023-11-21T20:04:09;7.93;;;2.55;;
78772;SDS011;68111;44.728;11.290;2023-11-21T20:06:40;7.25;;;3.10;;
78772;SDS011;68111;44.728;11.290;2023-11-21T20:09:16;6.60;;;3.35;;
78772;SDS011;68111;44.728;11.290;2023-11-21T20:11:43;9.23;;;3.38;;
78772;SDS011;68111;44.728;11.290;2023-11-21T20:14:12;9.50;;;3.90;;
78772;SDS011;68111;44.728;11.290;2023-11-21T20:16:40;9.68;;;3.30;;
78772;SDS011;68111;44.728;11.290;2023-11-21T20:19:07;5.97;;;2.83;;
78772;SDS011;68111;44.728;11.290;2023-11-21T20:21:34;8.98;;;2.70;;
78772;SDS011;68111;44.728;11.290;2023-11-21T20:24:01;7.28;;;2.35;;
78772;SDS011;68111;44.728;11.290;2023-11-21T22:07:56;8.70;;;5.32;;
